createdAt,value
2022-09-12T00:08:54.461Z,1001.72
2022-09-12T00:19:00.688Z,1001.60
2022-09-12T00:29:06.893Z,1001.64
2022-09-12T00:39:13.045Z,1001.66
2022-09-12T00:49:19.416Z,1001.73
2022-09-12T00:59:25.761Z,1001.58
2022-09-12T01:09:32.048Z,1001.46
2022-09-12T01:19:38.079Z,1001.44
2022-09-12T01:29:44.581Z,1001.52
2022-09-12T01:39:50.819Z,1001.50
2022-09-12T01:49:57.400Z,1001.42
2022-09-12T02:00:03.646Z,1001.34
2022-09-12T02:10:09.709Z,1001.32
2022-09-12T02:20:25.992Z,1001.36
2022-09-12T02:30:27.155Z,1001.40
2022-09-12T02:40:33.428Z,1001.28
2022-09-12T02:50:40.006Z,1001.27
2022-09-12T03:00:45.926Z,1001.24
2022-09-12T03:10:52.057Z,1001.19
2022-09-12T03:20:58.255Z,1001.11
2022-09-12T03:31:05.990Z,1001.08
2022-09-12T03:41:11.684Z,1001.03
2022-09-12T03:51:19.745Z,1001.02
2022-09-12T04:01:25.882Z,1001.16
2022-09-12T04:11:32.017Z,1001.18
2022-09-12T04:21:38.245Z,1001.21
2022-09-12T04:31:44.317Z,1001.20
2022-09-12T04:41:50.552Z,1001.19
2022-09-12T04:51:56.701Z,1001.22
2022-09-12T05:02:03.264Z,1001.19
2022-09-12T05:12:09.722Z,1001.28
2022-09-12T05:22:15.804Z,1001.39
2022-09-12T05:32:23.549Z,1001.47
2022-09-12T05:42:29.257Z,1001.45
2022-09-12T05:52:37.674Z,1001.52
2022-09-12T06:02:43.726Z,1001.56
2022-09-12T06:12:49.877Z,1001.62
2022-09-12T06:22:57.752Z,1001.59
2022-09-12T06:33:03.323Z,1001.68
2022-09-12T06:43:09.070Z,1001.69
2022-09-12T06:53:15.068Z,1001.66
2022-09-12T07:03:21.354Z,1001.65
2022-09-12T07:13:27.655Z,1001.56
2022-09-12T07:23:33.737Z,1001.66
2022-09-12T07:33:39.992Z,1001.61
2022-09-12T07:43:46.317Z,1001.60
2022-09-12T07:53:53.229Z,1001.60
2022-09-12T08:03:59.240Z,1001.64
2022-09-12T08:14:05.411Z,1001.70
2022-09-12T08:24:11.972Z,1001.71
2022-09-12T08:34:18.399Z,1001.76
2022-09-12T08:44:24.671Z,1001.84
2022-09-12T08:54:30.987Z,1001.80
2022-09-12T09:04:37.011Z,1001.65
2022-09-12T09:14:43.086Z,1001.51
2022-09-12T09:24:48.994Z,1001.45
2022-09-12T09:34:54.847Z,1001.36
2022-09-12T09:45:00.661Z,1001.24
2022-09-12T09:55:07.188Z,1001.11
2022-09-12T10:05:13.454Z,1001.02
2022-09-12T10:15:19.605Z,1000.88
2022-09-12T10:25:26.028Z,1000.91
2022-09-12T10:35:32.346Z,1000.83
2022-09-12T10:45:38.872Z,1000.69
2022-09-12T10:55:45.560Z,1000.65
2022-09-12T11:05:52.250Z,1000.57
2022-09-12T11:15:58.776Z,1000.56
2022-09-12T11:26:05.403Z,1000.44
2022-09-12T11:36:12.221Z,1000.32
2022-09-12T11:46:18.881Z,1000.35
2022-09-12T11:56:25.651Z,1000.26
2022-09-12T12:06:31.723Z,1000.21
2022-09-12T12:16:38.258Z,1000.10
2022-09-12T12:26:44.744Z,999.98
2022-09-12T12:36:51.024Z,999.84
2022-09-12T12:46:57.058Z,999.82
2022-09-12T12:57:02.847Z,999.73
2022-09-12T13:08:39.682Z,999.65
2022-09-12T13:18:44.140Z,999.54
2022-09-12T13:28:49.784Z,999.43
2022-09-12T13:38:55.153Z,999.35
2022-09-12T13:49:00.822Z,999.22
2022-09-12T13:59:06.793Z,999.17
2022-09-12T14:09:12.679Z,999.08
2022-09-12T14:19:19.694Z,999.07
2022-09-12T14:29:25.142Z,998.92
2022-09-12T14:39:31.119Z,998.84
2022-09-12T14:49:36.958Z,998.79
2022-09-12T14:59:42.700Z,998.68
2022-09-12T15:09:48.147Z,998.61
2022-09-12T15:19:53.905Z,998.55
2022-09-12T15:29:59.322Z,998.49
2022-09-12T15:40:04.874Z,998.60
2022-09-12T15:50:10.061Z,998.53
2022-09-12T16:00:16.158Z,998.49
2022-09-12T16:10:22.189Z,998.40
2022-09-12T16:20:28.008Z,998.32
2022-09-12T16:30:33.804Z,998.17
2022-09-12T16:40:39.645Z,998.12
2022-09-12T16:50:45.394Z,998.09
2022-09-12T17:00:51.317Z,997.98
2022-09-12T17:10:57.028Z,997.90
2022-09-12T17:21:02.662Z,997.94
2022-09-12T17:31:09.529Z,997.89
2022-09-12T17:41:15.140Z,997.87
2022-09-12T17:51:20.651Z,997.88
2022-09-12T18:01:26.282Z,997.85
2022-09-12T18:11:31.944Z,997.91
2022-09-12T18:21:37.544Z,997.84
2022-09-12T18:31:43.878Z,997.88
2022-09-12T18:41:49.403Z,997.74
2022-09-12T18:51:54.759Z,997.81
2022-09-12T19:02:01.032Z,997.78
2022-09-12T19:12:07.643Z,997.79
2022-09-12T19:22:14.131Z,997.74
2022-09-12T19:32:20.310Z,997.78
2022-09-12T19:42:26.290Z,997.93
2022-09-12T19:52:32.346Z,997.89
2022-09-12T20:02:39.184Z,997.88
2022-09-12T20:12:45.264Z,997.78
2022-09-12T20:22:51.448Z,997.80
2022-09-12T20:32:57.864Z,997.85
2022-09-12T20:43:04.342Z,997.72
2022-09-12T20:53:10.594Z,997.67
2022-09-12T21:03:16.831Z,997.63
2022-09-12T21:13:22.988Z,997.54
2022-09-12T21:23:29.229Z,997.23
2022-09-12T21:33:35.494Z,997.16
2022-09-12T21:43:41.630Z,997.14
2022-09-12T21:53:47.849Z,997.16
2022-09-12T22:03:54.178Z,997.09
2022-09-12T22:14:00.104Z,997.07
2022-09-12T22:24:06.439Z,996.99
2022-09-12T22:34:12.395Z,996.76
2022-09-12T22:44:18.623Z,996.80
2022-09-12T22:54:24.970Z,996.72
2022-09-12T23:04:32.718Z,996.64
2022-09-12T23:14:38.323Z,996.60
2022-09-12T23:24:46.274Z,996.52
2022-09-12T23:34:52.522Z,996.50
2022-09-12T23:44:58.739Z,996.31
2022-09-12T23:55:05.088Z,996.22
